Portada
METAR-TAF:

METAR-TAF

Aeroports :

Siirt, Turquia

latitud: 37-58-41N, longitud: 41-50-21E, altitud: 610 m

Observació

L'informe es va fer fa 8 hores i 6 minuts, a les 14:50 UTC
Vent 8 kt del Sud
Temperatura 38°C
Humitat 14%
Pressió 1006 hPa
Visibilitat 10 km o més
sense núvols per sota de 1500 mi sense presència de cumulonimbus.

METAR: LTCL 151450Z 19008KT CAVOK 38/06 Q1006

Hora: 01:56 (22:56 UTC)

Pronòstic

L'informe es va fer fa 9 hores i 16 minuts, a les 13:40 UTC
Pronòstic vàlid del 15 a les 15 UTC al 15 a les 24 UTC
Vent 12 kt del Sud/Sud-Oest
Visibilitat 10 km o més
sense núvols per sota de 1500 mi sense presència de cumulonimbus.
Evolucionant progressivament
l' 15 a les 16 UTC al 15 a les 18 UTC
Vent 2 kt amb direcció variable

TAF: LTCL 151340Z 1515/1524 21012KT CAVOK BECMG 1516/1518 VRB02KT

Observacions i pronòstics meteorològics de més de 4000 aeroports (METAR i TAF).

Les estacions disponibles són els punts grocs i vermells al mapa.

Posi el ratolí al punt desitjat per veure el nom de l'estació.

Feu clic per veure les observacions i els pronòstics meteorològics.

Per canviar el mapa: feu clic els botons verds amb una creu de color negre per apropar; al botó verd amb un guió per allunyar la imatge; o en les fletxes verdes per a mapes adjacents.


METAR-TAF: